createdAt,value
2022-11-05T06:13:53.541Z,98877.00
2022-11-05T06:17:03.494Z,98886.59
2022-11-05T06:20:14.165Z,98890.69
2022-11-05T06:23:24.071Z,98894.50
2022-11-05T06:26:33.964Z,98895.00
2022-11-05T06:29:45.170Z,98899.06
2022-11-05T06:32:55.084Z,98902.41
2022-11-05T06:36:06.730Z,98903.63
2022-11-05T06:39:16.615Z,98911.53
2022-11-05T06:42:26.848Z,98921.22
2022-11-05T06:45:38.239Z,98926.34
2022-11-05T06:48:48.536Z,98921.44
2022-11-05T06:51:59.275Z,98929.44
2022-11-05T06:55:09.843Z,98933.88
2022-11-05T06:58:19.810Z,98940.03
2022-11-05T07:01:31.109Z,98940.28
2022-11-05T07:04:41.128Z,98949.00
2022-11-05T07:07:51.119Z,98957.97
2022-11-05T07:11:01.135Z,98968.19
2022-11-05T07:14:11.013Z,98965.69
2022-11-05T07:17:23.150Z,98977.34
2022-11-05T07:20:34.528Z,98971.13
2022-11-05T07:23:44.580Z,98971.63
2022-11-05T07:26:54.478Z,98976.38
2022-11-05T07:30:04.714Z,98981.50
2022-11-05T07:33:15.954Z,98979.56
2022-11-05T07:36:25.953Z,98986.25
2022-11-05T07:39:35.857Z,98991.66
2022-11-05T07:42:46.729Z,98988.31
2022-11-05T07:45:56.649Z,98988.88
2022-11-05T07:49:07.906Z,98988.78
2022-11-05T07:52:17.858Z,98989.72
2022-11-05T07:55:27.795Z,98996.41
2022-11-05T07:58:38.283Z,99003.06
2022-11-05T08:01:48.354Z,99013.13
2022-11-05T08:04:59.739Z,99013.91
2022-11-05T08:08:11.713Z,99017.78
2022-11-05T08:11:21.615Z,99016.91
2022-11-05T08:14:31.503Z,99019.63
2022-11-05T08:17:41.840Z,99023.38
2022-11-05T08:20:53.065Z,99020.19
2022-11-05T08:24:02.993Z,99014.34
2022-11-05T08:27:12.950Z,99015.84
2022-11-05T08:30:23.107Z,99016.78
2022-11-05T08:51:44.713Z,99033.53
2022-11-05T08:54:54.693Z,99021.69
2022-11-05T08:58:06.107Z,99026.38
2022-11-05T09:01:16.253Z,99022.78
2022-11-05T09:04:26.193Z,99029.28
2022-11-05T09:07:37.422Z,99039.56
2022-11-05T09:10:49.783Z,99033.97
2022-11-05T09:13:59.753Z,99030.88
2022-11-05T09:17:16.886Z,99020.13
2022-11-05T09:20:27.094Z,99023.34
2022-11-05T09:23:38.348Z,99025.72
2022-11-05T09:26:48.354Z,99028.88
2022-11-05T09:29:58.277Z,99038.97
2022-11-05T09:33:08.372Z,99045.63
2022-11-05T09:36:18.374Z,99042.72
2022-11-05T09:39:29.739Z,99053.34
2022-11-05T09:42:46.169Z,99056.06
2022-11-05T09:45:59.859Z,99054.72
2022-11-05T09:49:21.751Z,99049.75
2022-11-05T09:52:34.253Z,99049.19
2022-11-05T09:55:49.266Z,99057.19
2022-11-05T09:59:03.080Z,99054.34
2022-11-05T10:02:21.692Z,99058.13
2022-11-05T10:05:35.131Z,99066.38
2022-11-05T10:08:47.838Z,99068.78
2022-11-05T10:12:06.441Z,99069.69
2022-11-05T10:15:20.585Z,99070.97
2022-11-05T10:18:34.521Z,99073.72
2022-11-05T10:22:05.455Z,99075.06
2022-11-05T10:25:19.361Z,99081.84
2022-11-05T10:28:33.749Z,99078.03
2022-11-05T10:31:44.516Z,99079.56
2022-11-05T10:34:58.313Z,99083.41
2022-11-05T10:38:14.232Z,99083.13
2022-11-05T10:41:38.392Z,99084.97
2022-11-05T10:44:57.991Z,99086.41
2022-11-05T10:48:28.031Z,99084.16
2022-11-05T10:51:38.299Z,99086.78
2022-11-05T10:54:49.826Z,99075.19
2022-11-05T10:58:10.513Z,99069.91
2022-11-05T11:01:23.923Z,99064.53
2022-11-05T11:04:37.909Z,99080.16
2022-11-05T11:07:55.224Z,99084.25
2022-11-05T11:11:09.099Z,99085.44
2022-11-05T11:14:22.420Z,99088.34
2022-11-05T11:17:33.859Z,99079.41
2022-11-05T11:20:46.601Z,99078.91
2022-11-05T11:23:57.756Z,99077.31
2022-11-05T11:27:14.149Z,99068.88
2022-11-05T11:30:27.494Z,99082.63
2022-11-05T11:33:40.732Z,99071.28
2022-11-05T11:36:55.042Z,99073.69
2022-11-05T11:40:14.619Z,99076.06
2022-11-05T11:43:29.045Z,99066.81
2022-11-05T11:46:39.220Z,99071.50
2022-11-05T11:49:52.419Z,99084.44
2022-11-05T11:53:18.388Z,99077.03
2022-11-05T11:56:29.157Z,99078.03
2022-11-05T12:00:07.373Z,99071.84
2022-11-05T12:03:24.556Z,99067.06
2022-11-05T12:06:42.160Z,99067.25
2022-11-05T12:10:04.358Z,99070.47
2022-11-05T12:13:40.795Z,99066.91
2022-11-05T12:17:01.766Z,99066.44
2022-11-05T12:20:25.400Z,99064.59
2022-11-05T12:23:58.382Z,99068.28
2022-11-05T12:27:21.605Z,99076.78
2022-11-05T12:30:43.570Z,99077.22
2022-11-05T12:34:04.209Z,99070.69
2022-11-05T12:37:23.069Z,99073.34
2022-11-05T12:40:47.924Z,99074.50
2022-11-05T12:44:14.303Z,99085.47
2022-11-05T12:47:37.897Z,99091.03
2022-11-05T12:50:53.644Z,99100.81
2022-11-05T12:54:15.921Z,99110.50
2022-11-05T12:57:31.617Z,99102.94
2022-11-05T13:00:45.281Z,99101.50
2022-11-05T13:03:58.709Z,99095.38
2022-11-05T13:07:12.936Z,99095.38
2022-11-05T13:10:29.193Z,99093.41
2022-11-05T13:13:47.581Z,99087.91
2022-11-05T13:17:01.877Z,99093.97
2022-11-05T13:20:17.709Z,99095.06
2022-11-05T13:23:33.595Z,99089.88
2022-11-05T13:26:50.903Z,99098.03
2022-11-05T13:30:05.252Z,99095.03
2022-11-05T13:33:20.586Z,99096.78
2022-11-05T13:36:47.377Z,99092.84
2022-11-05T13:40:00.922Z,99096.09
2022-11-05T13:43:24.192Z,99096.94
2022-11-05T13:46:51.945Z,99099.03
2022-11-05T13:50:24.252Z,99105.09
2022-11-05T13:53:49.592Z,99109.44
2022-11-05T13:57:12.267Z,99108.19
2022-11-05T14:00:24.401Z,99112.41
2022-11-05T14:03:36.299Z,99109.47
2022-11-05T14:06:46.405Z,99116.16
2022-11-05T14:09:58.233Z,99114.09
2022-11-05T14:13:21.680Z,99108.59
2022-11-05T14:16:49.132Z,99112.22
2022-11-05T14:20:25.572Z,99119.56
2022-11-05T14:23:41.000Z,99118.28
2022-11-05T14:27:20.608Z,99110.88
2022-11-05T14:30:41.985Z,99103.13
2022-11-05T14:34:01.173Z,99105.97
2022-11-05T14:37:23.513Z,99113.16
2022-11-05T14:40:37.819Z,99112.72
2022-11-05T14:43:52.899Z,99095.81
2022-11-05T14:47:05.785Z,99101.44
2022-11-05T14:50:22.376Z,99103.63
2022-11-05T14:53:37.056Z,99103.63
2022-11-05T14:56:54.963Z,99101.97
2022-11-05T15:00:07.807Z,99109.28
2022-11-05T15:03:31.825Z,99114.81
2022-11-05T15:07:13.216Z,99108.38
2022-11-05T15:10:31.515Z,99103.38
2022-11-05T15:13:49.690Z,99108.88
2022-11-05T15:17:05.233Z,99103.13
2022-11-05T15:20:18.399Z,99101.19
2022-11-05T15:23:40.599Z,99100.03
2022-11-05T15:26:59.561Z,99101.94
2022-11-05T15:30:16.594Z,99110.53
2022-11-05T15:33:27.061Z,99111.94
2022-11-05T15:36:37.050Z,99106.03
2022-11-05T15:39:48.380Z,99107.56
2022-11-05T15:43:16.402Z,99109.88
2022-11-05T15:46:28.196Z,99114.84
2022-11-05T15:49:38.251Z,99106.94
2022-11-05T15:52:51.085Z,99105.16
2022-11-05T15:56:10.841Z,99103.81
2022-11-05T15:59:23.929Z,99111.44
2022-11-05T16:02:35.770Z,99121.69
2022-11-05T16:05:48.331Z,99134.47
2022-11-05T16:08:58.346Z,99138.56
2022-11-05T16:12:24.158Z,99138.91
2022-11-05T16:15:35.489Z,99137.53
2022-11-05T16:18:46.551Z,99144.84
2022-11-05T16:21:56.520Z,99132.56
2022-11-05T16:25:28.846Z,99132.09
2022-11-05T16:28:38.894Z,99141.44
2022-11-05T16:31:53.726Z,99151.94
2022-11-05T16:35:06.704Z,99147.75
2022-11-05T16:38:18.052Z,99146.28
2022-11-05T16:41:28.513Z,99144.22
2022-11-05T16:44:38.469Z,99140.34
2022-11-05T16:47:50.296Z,99143.13
2022-11-05T16:51:00.297Z,99143.59
2022-11-05T16:54:10.467Z,99150.56
2022-11-05T16:57:26.619Z,99144.75
2022-11-05T17:00:36.551Z,99161.31
2022-11-05T17:03:49.306Z,99152.34
2022-11-05T17:06:59.192Z,99156.88
2022-11-05T17:10:09.332Z,99157.69
2022-11-05T17:13:20.390Z,99165.69
2022-11-05T17:16:30.403Z,99173.38
2022-11-05T17:19:42.562Z,99172.16
2022-11-05T17:22:52.616Z,99171.47
2022-11-05T17:26:04.766Z,99160.38
2022-11-05T17:29:14.873Z,99164.91
2022-11-05T17:32:24.972Z,99181.47
2022-11-05T17:35:39.082Z,99191.06
2022-11-05T17:38:49.076Z,99186.84
2022-11-05T17:41:59.026Z,99198.09
2022-11-05T17:45:10.831Z,99185.66
2022-11-05T17:48:21.919Z,99176.06
2022-11-05T17:51:34.647Z,99170.97
2022-11-05T17:54:44.635Z,99181.63
2022-11-05T17:57:54.694Z,99179.09
2022-11-05T18:01:04.772Z,99174.25
2022-11-05T18:04:14.857Z,99181.47
2022-11-05T18:07:26.075Z,99175.13
2022-11-05T18:10:37.968Z,99183.56
2022-11-05T18:13:48.091Z,99188.34
2022-11-05T18:17:00.296Z,99190.16
2022-11-05T18:20:17.397Z,99182.97
2022-11-05T18:23:30.210Z,99181.91
2022-11-05T18:26:40.306Z,99182.38
2022-11-05T18:29:50.358Z,99191.41
2022-11-05T18:33:00.505Z,99200.72
2022-11-05T18:36:17.316Z,99197.41
2022-11-05T18:39:29.711Z,99197.41
2022-11-05T18:42:40.285Z,99188.88
2022-11-05T18:45:56.801Z,99195.97
2022-11-05T18:49:07.081Z,99183.94
2022-11-05T18:52:17.231Z,99192.38
2022-11-05T18:55:28.585Z,99198.34
2022-11-05T18:58:38.747Z,99196.25
2022-11-05T19:01:49.860Z,99198.19
2022-11-05T19:05:27.351Z,99190.63
2022-11-05T19:08:32.052Z,99186.84
2022-11-05T19:11:43.278Z,99185.34
2022-11-05T19:14:56.701Z,99183.56
2022-11-05T19:18:09.711Z,99185.78
2022-11-05T19:21:21.775Z,99182.94
2022-11-05T19:24:31.803Z,99171.53
2022-11-05T19:27:43.788Z,99179.34
2022-11-05T19:30:53.781Z,99174.22
2022-11-05T19:34:05.519Z,99171.34
2022-11-05T19:37:15.717Z,99173.00
2022-11-05T19:40:25.756Z,99179.94
2022-11-05T19:43:38.310Z,99169.09
2022-11-05T19:46:48.218Z,99166.53
2022-11-05T19:49:58.167Z,99167.00
2022-11-05T19:53:08.445Z,99168.19
2022-11-05T19:56:22.241Z,99171.47
2022-11-05T19:59:33.716Z,99166.63
2022-11-05T20:02:46.415Z,99167.09
2022-11-05T20:05:56.719Z,99154.63
2022-11-05T20:09:24.265Z,99156.13
2022-11-05T20:12:34.490Z,99163.22
2022-11-05T20:15:46.666Z,99163.38
2022-11-05T20:18:57.926Z,99158.50
2022-11-05T20:22:07.825Z,99162.56
2022-11-05T20:25:18.043Z,99164.53
2022-11-05T20:28:28.440Z,99164.84
2022-11-05T20:31:40.537Z,99160.88
2022-11-05T20:34:50.458Z,99170.47
2022-11-05T20:38:00.412Z,99174.84
2022-11-05T20:41:12.420Z,99172.84
2022-11-05T20:44:22.388Z,99171.31
2022-11-05T20:47:33.752Z,99170.84
2022-11-05T20:50:44.782Z,99170.66
2022-11-05T20:53:56.568Z,99175.09
2022-11-05T20:57:06.629Z,99185.66
2022-11-05T21:00:17.664Z,99174.94
2022-11-05T21:03:29.115Z,99167.94
2022-11-05T21:06:39.191Z,99172.78
2022-11-05T21:09:49.092Z,99172.22
2022-11-05T21:12:59.143Z,99171.00
2022-11-05T21:16:15.393Z,99163.03
2022-11-05T21:19:29.515Z,99160.78
2022-11-05T21:22:43.029Z,99162.84
2022-11-05T21:25:52.977Z,99171.28
2022-11-05T21:29:03.117Z,99176.47
2022-11-05T21:32:13.086Z,99180.06
2022-11-05T21:35:24.627Z,99174.22
2022-11-05T21:38:34.512Z,99167.84
2022-11-05T21:41:44.615Z,99172.38
2022-11-05T21:44:59.215Z,99175.16
2022-11-05T21:48:11.265Z,99168.75
2022-11-05T21:51:36.709Z,99172.34
2022-11-05T21:54:58.371Z,99166.53
2022-11-05T21:58:24.530Z,99174.75
2022-11-05T22:01:34.788Z,99170.00
2022-11-05T22:04:46.832Z,99171.16
2022-11-05T22:07:58.094Z,99162.75
2022-11-05T22:11:07.995Z,99159.06
2022-11-05T22:14:17.973Z,99161.28
2022-11-05T22:17:28.018Z,99164.25
2022-11-05T22:20:39.774Z,99174.75
2022-11-05T22:23:52.240Z,99181.69
2022-11-05T22:27:04.436Z,99176.19
2022-11-05T22:30:15.622Z,99187.19
